createdAt,value
2018-07-05T00:01:04.190Z,39.30
2018-07-05T00:02:35.862Z,41.60
2018-07-05T00:04:07.334Z,41.70
2018-07-05T00:05:38.906Z,42.90
2018-07-05T00:07:10.484Z,43.10
2018-07-05T00:08:42.049Z,52.30
2018-07-05T00:10:13.620Z,45.50
2018-07-05T00:11:45.192Z,45.00
2018-07-05T00:13:16.764Z,44.80
2018-07-05T00:14:48.336Z,44.90
2018-07-05T00:16:19.907Z,46.40
2018-07-05T00:17:51.481Z,45.10
2018-07-05T00:19:23.051Z,42.90
2018-07-05T00:20:55.524Z,43.20
2018-07-05T00:22:26.195Z,46.20
2018-07-05T00:23:57.766Z,45.90
2018-07-05T00:25:29.339Z,44.30
2018-07-05T00:27:00.911Z,50.40
2018-07-05T00:28:32.482Z,50.20
2018-07-05T00:30:04.054Z,51.80
2018-07-05T00:31:35.625Z,50.60
2018-07-05T00:33:07.347Z,54.60
2018-07-05T00:34:38.768Z,54.70
2018-07-05T00:36:10.342Z,56.60
2018-07-05T00:37:41.912Z,54.20
2018-07-05T00:39:13.785Z,56.20
2018-07-05T00:40:45.056Z,53.80
2018-07-05T00:42:16.628Z,55.40
2018-07-05T00:43:48.199Z,55.10
2018-07-05T00:45:19.771Z,55.00
2018-07-05T00:46:51.343Z,56.20
2018-07-05T00:48:22.915Z,53.20
2018-07-05T00:49:54.487Z,55.50
2018-07-05T00:51:26.159Z,56.10
2018-07-05T00:52:57.629Z,56.70
2018-07-05T00:54:29.202Z,55.40
2018-07-05T00:56:00.773Z,56.30
2018-07-05T00:57:32.444Z,56.10
2018-07-05T00:59:03.917Z,76.60
2018-07-05T01:00:35.487Z,60.10
2018-07-05T01:02:07.060Z,57.70
2018-07-05T01:03:38.630Z,57.00
2018-07-05T01:05:10.201Z,55.30
2018-07-05T01:06:41.775Z,58.50
2018-07-05T01:08:13.345Z,57.70
2018-07-05T01:09:44.915Z,58.40
2018-07-05T01:11:16.487Z,59.50
2018-07-05T01:12:48.062Z,58.60
2018-07-05T01:14:19.629Z,58.60
2018-07-05T01:15:51.304Z,58.70
2018-07-05T01:17:22.775Z,58.80
2018-07-05T01:18:54.344Z,59.50
2018-07-05T01:20:25.915Z,58.30
2018-07-05T01:21:57.488Z,60.40
2018-07-05T01:23:29.058Z,61.60
2018-07-05T01:25:00.629Z,61.10
2018-07-05T01:26:32.200Z,65.20
2018-07-05T01:28:03.771Z,62.90
2018-07-05T01:29:35.343Z,67.50
2018-07-05T01:31:06.914Z,65.80
2018-07-05T01:32:38.485Z,64.50
2018-07-05T01:34:10.157Z,67.10
2018-07-05T01:35:41.628Z,65.30
2018-07-05T01:37:13.201Z,66.10
2018-07-05T01:38:44.770Z,65.10
2018-07-05T01:40:16.492Z,65.90
2018-07-05T01:41:47.913Z,66.80
2018-07-05T01:43:19.484Z,62.70
2018-07-05T01:44:51.058Z,64.70
2018-07-05T01:46:22.627Z,68.30
2018-07-05T01:47:54.197Z,67.10
2018-07-05T01:49:25.768Z,65.50
2018-07-05T01:50:57.340Z,66.10
2018-07-05T01:52:29.462Z,64.50
2018-07-05T01:54:00.482Z,65.40
2018-07-05T01:55:32.052Z,65.00
2018-07-05T01:57:03.624Z,64.30
2018-07-05T01:58:35.194Z,69.70
2018-07-05T02:00:06.766Z,66.40
2018-07-05T02:01:38.335Z,68.20
2018-07-05T02:03:09.905Z,63.70
2018-07-05T02:04:41.480Z,64.20
2018-07-05T02:06:13.048Z,64.80
2018-07-05T02:07:44.618Z,64.90
2018-07-05T02:09:16.189Z,65.00
2018-07-05T02:10:47.859Z,62.10
2018-07-05T02:12:19.330Z,66.60
2018-07-05T02:13:50.900Z,67.50
2018-07-05T02:15:22.470Z,67.50
2018-07-05T02:16:54.041Z,64.70
2018-07-05T02:18:25.619Z,61.70
2018-07-05T02:19:57.182Z,63.50
2018-07-05T02:21:28.757Z,62.00
2018-07-05T02:23:00.426Z,61.10
2018-07-05T02:24:31.894Z,61.10
2018-07-05T02:26:03.464Z,61.90
2018-07-05T02:27:35.035Z,78.50
2018-07-05T02:29:06.955Z,108.40
2018-07-05T02:30:38.180Z,131.90
2018-07-05T02:32:09.747Z,119.90
2018-07-05T02:33:41.315Z,124.10
2018-07-05T02:35:12.886Z,174.00
2018-07-05T02:36:44.456Z,214.80
2018-07-05T02:38:16.026Z,159.20
2018-07-05T02:39:47.597Z,150.80
2018-07-05T02:41:19.167Z,193.50
2018-07-05T02:42:50.737Z,121.30
2018-07-05T02:44:22.308Z,106.10
2018-07-05T02:45:53.881Z,96.10
2018-07-05T02:47:25.548Z,84.20
2018-07-05T02:48:57.018Z,75.00
2018-07-05T02:50:28.589Z,68.70
2018-07-05T02:52:00.163Z,69.40
2018-07-05T02:53:31.729Z,64.40
2018-07-05T02:55:03.299Z,63.90
2018-07-05T02:56:34.870Z,61.60
2018-07-05T02:58:06.441Z,62.90
2018-07-05T02:59:38.261Z,108.70
2018-07-05T03:01:09.581Z,97.60
2018-07-05T03:02:41.151Z,87.30
2018-07-05T03:04:12.721Z,78.60
2018-07-05T03:05:44.392Z,65.90
2018-07-05T03:07:15.862Z,77.70
2018-07-05T03:08:47.434Z,76.60
2018-07-05T03:10:19.002Z,71.40
2018-07-05T03:11:50.573Z,78.70
2018-07-05T03:13:22.142Z,74.10
2018-07-05T03:14:53.723Z,80.20
2018-07-05T03:16:25.291Z,75.50
2018-07-05T03:17:56.854Z,69.90
2018-07-05T03:19:28.431Z,69.00
2018-07-05T03:20:59.995Z,75.20
2018-07-05T03:22:31.564Z,79.30
2018-07-05T03:24:03.385Z,69.40
2018-07-05T03:25:34.704Z,68.00
2018-07-05T03:27:06.274Z,71.70
2018-07-05T03:28:37.844Z,68.40
2018-07-05T03:30:09.665Z,67.50
2018-07-05T03:31:40.989Z,67.80
2018-07-05T03:33:12.555Z,68.70
2018-07-05T03:34:44.126Z,67.70
2018-07-05T03:36:15.694Z,69.90
2018-07-05T03:37:47.265Z,69.80
2018-07-05T03:39:18.835Z,69.20
2018-07-05T03:40:50.404Z,67.40
2018-07-05T03:42:22.275Z,64.80
2018-07-05T03:43:53.544Z,70.20
2018-07-05T03:45:25.114Z,71.90
2018-07-05T03:46:56.683Z,77.90
2018-07-05T03:48:28.253Z,71.70
2018-07-05T03:49:59.823Z,71.10
2018-07-05T03:51:31.421Z,69.70
2018-07-05T03:53:02.963Z,67.30
2018-07-05T03:54:34.535Z,65.50
2018-07-05T03:56:06.103Z,66.90
2018-07-05T03:57:37.672Z,67.50
2018-07-05T03:59:09.242Z,71.60
2018-07-05T04:00:40.912Z,69.50
2018-07-05T04:02:12.382Z,67.20
2018-07-05T04:03:43.953Z,65.70
2018-07-05T04:05:15.521Z,67.10
2018-07-05T04:06:47.091Z,68.50
2018-07-05T04:08:18.685Z,67.10
2018-07-05T04:09:50.231Z,69.10
2018-07-05T04:11:21.801Z,66.10
2018-07-05T04:12:53.521Z,65.10
2018-07-05T04:14:24.943Z,69.00
2018-07-05T04:15:56.510Z,77.60
2018-07-05T04:17:28.080Z,88.00
2018-07-05T04:18:59.901Z,98.00
2018-07-05T04:20:31.220Z,91.30
2018-07-05T04:22:02.790Z,60.70
2018-07-05T04:23:34.359Z,60.90
2018-07-05T04:25:06.080Z,61.30
2018-07-05T04:26:37.501Z,61.30
2018-07-05T04:28:09.070Z,62.10
2018-07-05T04:29:40.639Z,63.70
2018-07-05T04:31:12.209Z,63.80
2018-07-05T04:32:43.779Z,62.30
2018-07-05T04:34:15.420Z,75.60
2018-07-05T04:35:46.919Z,80.50
2018-07-05T04:37:18.589Z,64.70
2018-07-05T04:38:50.060Z,59.10
2018-07-05T04:40:21.627Z,59.40
2018-07-05T04:41:53.197Z,60.20
2018-07-05T04:43:24.867Z,65.00
2018-07-05T04:44:56.341Z,63.80
2018-07-05T04:46:27.907Z,61.40
2018-07-05T04:47:59.574Z,63.40
2018-07-05T04:49:31.054Z,61.50
2018-07-05T04:51:02.616Z,57.30
2018-07-05T04:52:34.185Z,58.40
2018-07-05T04:54:05.756Z,61.60
2018-07-05T04:55:37.485Z,62.30
2018-07-05T04:57:08.895Z,65.20
2018-07-05T04:58:40.471Z,60.60
2018-07-05T05:00:12.034Z,65.10
2018-07-05T05:01:43.604Z,83.30
2018-07-05T05:03:15.173Z,92.00
2018-07-05T05:04:46.754Z,75.80
2018-07-05T05:06:18.313Z,60.20
2018-07-05T05:07:49.883Z,94.60
2018-07-05T05:09:21.454Z,100.10
2018-07-05T05:10:53.023Z,67.70
2018-07-05T05:12:24.605Z,91.90
2018-07-05T05:13:56.462Z,73.70
2018-07-05T05:15:27.736Z,64.80
2018-07-05T05:16:59.306Z,69.70
2018-07-05T05:18:30.871Z,59.90
2018-07-05T05:20:02.441Z,57.00
2018-07-05T05:21:34.011Z,59.20
2018-07-05T05:23:05.580Z,59.60
2018-07-05T05:24:37.150Z,75.60
2018-07-05T05:26:08.821Z,79.70
2018-07-05T05:27:40.292Z,67.60
2018-07-05T05:29:11.859Z,63.10
2018-07-05T05:30:43.428Z,59.20
2018-07-05T05:32:15.098Z,57.70
2018-07-05T05:33:46.568Z,60.50
2018-07-05T05:35:18.137Z,60.50
2018-07-05T05:36:49.707Z,61.40
2018-07-05T05:38:21.276Z,65.10
2018-07-05T05:39:52.845Z,70.40
2018-07-05T05:41:24.416Z,75.70
2018-07-05T05:42:55.985Z,102.70
2018-07-05T05:44:27.554Z,98.90
2018-07-05T05:45:59.123Z,99.20
2018-07-05T05:47:30.693Z,100.50
2018-07-05T05:49:02.262Z,99.90
2018-07-05T05:50:34.032Z,81.60
2018-07-05T05:52:05.401Z,94.30
2018-07-05T05:53:36.971Z,83.00
2018-07-05T05:55:08.542Z,72.20
2018-07-05T05:56:40.212Z,58.50
2018-07-05T05:58:11.680Z,58.80
2018-07-05T05:59:43.250Z,71.30
2018-07-05T06:01:14.820Z,80.30
2018-07-05T06:02:46.640Z,88.40
2018-07-05T06:04:17.959Z,89.60
2018-07-05T06:05:49.528Z,72.20
2018-07-05T06:07:21.103Z,63.60
2018-07-05T06:08:52.768Z,63.80
2018-07-05T06:10:24.238Z,58.10
2018-07-05T06:11:55.811Z,56.70
2018-07-05T06:13:27.376Z,60.20
2018-07-05T06:14:58.948Z,71.60
2018-07-05T06:16:30.517Z,67.50
2018-07-05T06:18:02.087Z,62.70
2018-07-05T06:19:33.655Z,60.80
2018-07-05T06:21:05.229Z,61.90
2018-07-05T06:22:36.795Z,61.90
2018-07-05T06:24:08.364Z,67.10
2018-07-05T06:25:39.970Z,68.80
2018-07-05T06:27:11.703Z,70.20
2018-07-05T06:28:43.076Z,69.70
2018-07-05T06:30:14.642Z,64.90
2018-07-05T06:31:46.212Z,59.80
2018-07-05T06:33:18.032Z,63.00
2018-07-05T06:34:49.351Z,58.40
2018-07-05T06:36:20.922Z,61.90
2018-07-05T06:37:52.489Z,60.50
2018-07-05T06:39:24.059Z,64.80
2018-07-05T06:40:55.629Z,63.00
2018-07-05T06:42:27.199Z,69.40
2018-07-05T06:43:58.767Z,75.80
2018-07-05T06:45:30.636Z,76.50
2018-07-05T06:47:01.906Z,76.70
2018-07-05T06:48:33.475Z,65.90
2018-07-05T06:50:05.045Z,61.40
2018-07-05T06:51:36.614Z,60.00
2018-07-05T06:53:08.227Z,71.50
2018-07-05T06:54:39.752Z,62.70
2018-07-05T06:56:11.321Z,65.30
2018-07-05T06:57:42.991Z,67.10
2018-07-05T06:59:14.477Z,67.10
2018-07-05T07:00:46.031Z,63.00
2018-07-05T07:02:17.598Z,61.40
2018-07-05T07:03:49.519Z,70.10
2018-07-05T07:05:20.737Z,76.80
2018-07-05T07:06:52.306Z,75.60
2018-07-05T07:08:23.875Z,79.60
2018-07-05T07:09:55.595Z,74.00
2018-07-05T07:11:27.014Z,65.70
2018-07-05T07:12:58.583Z,64.70
2018-07-05T07:14:30.153Z,64.50
2018-07-05T07:16:01.870Z,69.30
2018-07-05T07:17:33.291Z,72.40
2018-07-05T07:19:04.861Z,81.20
2018-07-05T07:20:36.429Z,78.80
2018-07-05T07:22:08.099Z,61.00
2018-07-05T07:23:39.568Z,57.50
2018-07-05T07:25:11.137Z,72.00
2018-07-05T07:26:42.706Z,77.50
2018-07-05T07:28:14.375Z,68.30
2018-07-05T07:29:45.845Z,69.10
2018-07-05T07:31:17.448Z,66.90
2018-07-05T07:32:48.990Z,61.80
2018-07-05T07:34:20.803Z,54.20
2018-07-05T07:35:52.122Z,55.10
2018-07-05T07:37:23.743Z,56.70
2018-07-05T07:38:55.294Z,57.40
2018-07-05T07:40:26.931Z,60.00
2018-07-05T07:41:58.401Z,62.80
2018-07-05T07:43:29.969Z,63.70
2018-07-05T07:45:01.541Z,61.60
2018-07-05T07:46:33.258Z,57.80
2018-07-05T07:48:04.677Z,61.60
2018-07-05T07:49:36.245Z,57.30
2018-07-05T07:51:07.815Z,69.50
2018-07-05T07:52:39.484Z,61.50
2018-07-05T07:54:10.954Z,63.20
2018-07-05T07:55:42.522Z,71.70
2018-07-05T07:57:14.092Z,60.90
2018-07-05T07:58:45.861Z,58.90
2018-07-05T08:00:17.230Z,59.70
2018-07-05T08:01:48.799Z,71.80
2018-07-05T08:03:20.370Z,77.40
2018-07-05T08:04:52.188Z,91.60
2018-07-05T08:06:23.506Z,71.30
2018-07-05T08:07:55.115Z,81.60
2018-07-05T08:09:26.645Z,96.00
2018-07-05T08:10:58.214Z,94.80
2018-07-05T08:12:29.783Z,71.00
2018-07-05T08:14:01.352Z,59.60
2018-07-05T08:15:32.921Z,57.50
2018-07-05T08:17:04.745Z,58.30
2018-07-05T08:18:36.060Z,62.40
2018-07-05T08:20:07.629Z,60.80
2018-07-05T08:21:39.197Z,87.00
2018-07-05T08:23:10.767Z,81.10
2018-07-05T08:24:42.338Z,60.80
2018-07-05T08:26:13.908Z,79.40
2018-07-05T08:27:45.477Z,71.50
2018-07-05T08:29:17.143Z,101.10
2018-07-05T08:30:48.612Z,115.40
2018-07-05T08:32:20.181Z,112.70
2018-07-05T08:33:51.751Z,110.90
2018-07-05T08:35:23.670Z,124.20
2018-07-05T08:36:54.891Z,109.70
2018-07-05T08:38:26.458Z,122.80
2018-07-05T08:39:58.028Z,126.00
2018-07-05T08:41:29.599Z,138.00
2018-07-05T08:43:01.167Z,149.30
2018-07-05T08:44:32.736Z,131.70
2018-07-05T08:46:04.305Z,139.20
2018-07-05T08:47:35.874Z,151.50
2018-07-05T08:49:07.444Z,146.10
2018-07-05T08:50:39.013Z,143.30
2018-07-05T08:52:10.583Z,139.10
2018-07-05T08:53:42.253Z,141.60
2018-07-05T08:55:16.627Z,123.50
2018-07-05T08:56:45.293Z,146.50
2018-07-05T08:58:16.936Z,154.20
2018-07-05T08:59:48.532Z,158.60
2018-07-05T09:01:20.002Z,170.50
2018-07-05T09:02:51.571Z,167.20
2018-07-05T09:04:23.141Z,194.50
2018-07-05T09:05:54.962Z,205.80
2018-07-05T09:07:26.281Z,178.90
2018-07-05T09:08:57.851Z,179.00
2018-07-05T09:10:29.421Z,174.20
2018-07-05T09:12:01.091Z,159.30
2018-07-05T09:13:32.560Z,171.80
2018-07-05T09:15:04.131Z,170.00
2018-07-05T09:16:35.704Z,176.40
2018-07-05T09:18:07.420Z,185.10
2018-07-05T09:19:38.840Z,158.10
2018-07-05T09:21:10.410Z,165.40
2018-07-05T09:22:41.980Z,153.60
2018-07-05T09:24:13.549Z,146.10
2018-07-05T09:25:45.119Z,147.20
2018-07-05T09:27:16.690Z,145.50
2018-07-05T09:28:48.259Z,148.20
2018-07-05T09:30:20.030Z,159.90
2018-07-05T09:31:51.440Z,128.50
2018-07-05T09:33:22.969Z,137.70
2018-07-05T09:34:54.539Z,140.90
2018-07-05T09:36:26.361Z,146.80
2018-07-05T09:37:57.679Z,144.20
2018-07-05T09:39:29.248Z,142.00
2018-07-05T09:41:00.818Z,130.10
2018-07-05T09:42:32.390Z,152.10
2018-07-05T09:44:03.958Z,127.70
2018-07-05T09:45:35.532Z,123.50
2018-07-05T09:47:07.211Z,164.40
2018-07-05T09:48:38.967Z,125.60
2018-07-05T09:50:10.237Z,141.20
2018-07-05T09:51:41.830Z,111.90
2018-07-05T09:53:13.376Z,145.90
2018-07-05T09:54:44.946Z,147.20
2018-07-05T09:56:16.517Z,130.80
2018-07-05T09:57:48.086Z,109.10
2018-07-05T09:59:19.656Z,127.90
2018-07-05T10:00:51.326Z,127.70
2018-07-05T10:02:22.798Z,150.20
2018-07-05T10:03:54.366Z,129.10
2018-07-05T10:05:25.938Z,113.90
2018-07-05T10:06:57.856Z,147.40
2018-07-05T10:08:29.075Z,129.50
2018-07-05T10:10:00.646Z,112.90
2018-07-05T10:11:32.215Z,117.40
2018-07-05T10:13:03.818Z,111.10
2018-07-05T10:14:35.357Z,129.80
2018-07-05T10:16:06.926Z,119.10
2018-07-05T10:17:38.503Z,104.80
2018-07-05T10:19:10.066Z,100.40
2018-07-05T10:20:41.636Z,118.50
2018-07-05T10:22:13.207Z,112.80
2018-07-05T10:23:44.776Z,113.70
2018-07-05T10:25:16.448Z,127.20
2018-07-05T10:26:47.917Z,117.90
2018-07-05T10:28:19.486Z,120.10
2018-07-05T10:29:51.086Z,109.60
2018-07-05T10:31:22.627Z,107.70
2018-07-05T10:32:54.250Z,107.70
2018-07-05T10:34:25.769Z,91.20
2018-07-05T10:35:57.338Z,104.80
2018-07-05T10:37:29.160Z,127.30
2018-07-05T10:39:00.482Z,104.10
2018-07-05T10:40:32.050Z,111.80
2018-07-05T10:42:03.619Z,113.60
2018-07-05T10:43:35.292Z,108.10
2018-07-05T10:45:06.760Z,121.30
2018-07-05T10:46:38.635Z,115.50
2018-07-05T10:48:09.901Z,106.50
2018-07-05T10:49:41.471Z,108.20
2018-07-05T10:51:13.042Z,107.30
2018-07-05T10:54:16.184Z,110.70
2018-07-05T10:55:47.780Z,104.20
2018-07-05T10:57:19.327Z,103.60
2018-07-05T10:58:50.894Z,118.90
2018-07-05T11:00:22.669Z,109.90
2018-07-05T11:01:54.258Z,121.60
2018-07-05T11:03:25.778Z,114.40
2018-07-05T11:04:57.177Z,119.10
2018-07-05T11:06:28.748Z,106.20
2018-07-05T11:08:00.569Z,103.70
2018-07-05T11:09:31.889Z,105.30
2018-07-05T11:11:03.460Z,103.80
2018-07-05T11:12:35.031Z,102.30
2018-07-05T11:14:06.906Z,96.30
2018-07-05T11:15:38.175Z,99.10
2018-07-05T11:17:09.744Z,107.40
2018-07-05T11:18:41.316Z,100.10
2018-07-05T11:20:12.987Z,100.30
2018-07-05T11:21:44.661Z,101.80
2018-07-05T11:23:16.029Z,98.40
2018-07-05T11:24:47.651Z,96.00
2018-07-05T11:26:19.271Z,93.60
2018-07-05T11:27:50.742Z,98.80
2018-07-05T11:29:22.313Z,85.60
2018-07-05T11:30:53.885Z,73.80
2018-07-05T11:32:25.560Z,73.20
2018-07-05T11:33:57.030Z,68.70
2018-07-05T11:35:28.606Z,72.00
2018-07-05T11:37:00.170Z,64.50
2018-07-05T11:38:31.841Z,82.20
2018-07-05T11:40:03.316Z,82.80
2018-07-05T11:41:34.885Z,88.10
2018-07-05T11:43:06.658Z,85.50
2018-07-05T11:44:38.138Z,77.90
2018-07-05T11:46:09.601Z,77.60
2018-07-05T11:47:41.173Z,68.50
2018-07-05T11:49:12.745Z,64.10
2018-07-05T11:50:44.325Z,61.60
2018-07-05T11:52:15.975Z,62.90
2018-07-05T11:53:47.490Z,63.80
2018-07-05T11:55:19.033Z,62.30
2018-07-05T11:56:50.705Z,60.70
2018-07-05T11:58:22.179Z,58.30
2018-07-05T11:59:53.818Z,60.80
2018-07-05T12:01:25.326Z,61.70
2018-07-05T12:02:56.981Z,62.80
2018-07-05T12:04:28.675Z,45.60
2018-07-05T12:06:00.345Z,44.20
2018-07-05T12:07:31.613Z,39.60
2018-07-05T12:09:03.188Z,44.90
2018-07-05T12:10:34.772Z,47.10
2018-07-05T12:12:06.333Z,44.40
2018-07-05T12:13:37.925Z,46.10
2018-07-05T12:15:09.581Z,44.80
2018-07-05T12:16:41.054Z,44.00
2018-07-05T12:18:12.628Z,41.10
2018-07-05T12:19:44.217Z,41.80
2018-07-05T12:21:15.776Z,42.10
2018-07-05T12:22:47.958Z,40.40
2018-07-05T12:24:18.981Z,44.20
2018-07-05T12:27:22.102Z,43.10
2018-07-05T12:28:53.650Z,40.70
2018-07-05T12:30:25.225Z,39.10
2018-07-05T12:31:56.806Z,41.10
2018-07-05T12:33:28.683Z,40.70
2018-07-05T12:34:59.952Z,45.30
2018-07-05T12:36:31.527Z,50.80
2018-07-05T12:38:03.675Z,48.20
2018-07-05T12:41:06.559Z,44.90
2018-07-05T12:42:38.137Z,44.10
2018-07-05T12:44:09.407Z,43.20
2018-07-05T12:45:40.985Z,37.70
2018-07-05T12:47:12.965Z,36.60
2018-07-05T12:50:15.716Z,36.80
2018-07-05T12:51:47.341Z,35.00
2018-07-05T12:53:19.115Z,37.20
2018-07-05T12:54:50.450Z,35.40
2018-07-05T12:56:22.540Z,35.20
2018-07-05T12:57:53.606Z,34.20
2018-07-05T12:59:25.187Z,33.60
2018-07-05T13:00:56.764Z,35.20
2018-07-05T13:02:28.343Z,36.10
2018-07-05T13:04:00.008Z,33.20
2018-07-05T13:05:31.505Z,33.80
2018-07-05T13:07:03.082Z,33.50
2018-07-05T13:08:34.966Z,32.70
2018-07-05T13:10:06.778Z,33.60
2018-07-05T13:11:37.922Z,32.30
2018-07-05T13:13:09.402Z,34.00
2018-07-05T13:14:40.984Z,32.50
2018-07-05T13:17:44.365Z,32.20
2018-07-05T13:19:15.825Z,31.80
2018-07-05T13:20:47.613Z,33.00
2018-07-05T13:22:18.924Z,34.20
2018-07-05T13:23:50.465Z,31.60
2018-07-05T13:26:53.629Z,33.80
2018-07-05T13:29:57.193Z,32.20
2018-07-05T13:31:29.328Z,31.20
2018-07-05T13:32:59.998Z,33.20
2018-07-05T13:34:31.535Z,31.50
2018-07-05T13:37:34.863Z,31.20
2018-07-05T13:39:06.278Z,31.10
2018-07-05T13:42:09.707Z,29.90
2018-07-05T13:43:41.325Z,30.80
2018-07-05T13:45:12.607Z,30.50
2018-07-05T13:46:44.185Z,30.20
2018-07-05T13:48:15.944Z,29.20
2018-07-05T13:49:47.704Z,29.70
2018-07-05T13:51:18.932Z,29.20
2018-07-05T13:52:50.713Z,29.70
2018-07-05T13:54:22.093Z,29.40
2018-07-05T13:55:54.456Z,27.90
2018-07-05T13:57:25.254Z,31.20
2018-07-05T13:58:57.041Z,29.90
2018-07-05T14:00:28.425Z,29.50
2018-07-05T14:02:00.203Z,30.00
2018-07-05T14:03:31.606Z,28.70
2018-07-05T14:05:03.367Z,27.80
2018-07-05T14:06:34.747Z,28.00
2018-07-05T14:08:06.434Z,28.80
2018-07-05T14:09:38.113Z,30.40
2018-07-05T14:11:09.493Z,29.80
2018-07-05T14:12:41.075Z,28.80
2018-07-05T14:14:12.658Z,30.70
2018-07-05T14:15:44.544Z,29.50
2018-07-05T14:17:15.822Z,28.00
2018-07-05T14:18:47.406Z,27.00
2018-07-05T14:20:19.139Z,27.50
2018-07-05T14:21:50.574Z,27.80
2018-07-05T14:23:22.154Z,28.40
2018-07-05T14:24:53.838Z,28.50
2018-07-05T14:26:25.614Z,29.60
2018-07-05T14:29:28.690Z,29.40
2018-07-05T14:31:00.105Z,28.20
2018-07-05T14:32:32.058Z,28.10
2018-07-05T14:34:03.252Z,27.20
2018-07-05T14:35:35.376Z,25.60
2018-07-05T14:37:06.646Z,27.20
2018-07-05T14:38:37.996Z,27.90
2018-07-05T14:40:09.794Z,29.00
2018-07-05T14:43:13.269Z,27.70
2018-07-05T14:46:16.459Z,27.50
2018-07-05T14:47:47.485Z,26.40
2018-07-05T14:49:19.068Z,27.10
2018-07-05T14:50:50.652Z,26.90
2018-07-05T14:53:53.823Z,28.30
2018-07-05T14:56:56.987Z,26.70
2018-07-05T14:58:28.635Z,26.60
2018-07-05T15:00:00.157Z,26.00
2018-07-05T15:01:31.744Z,25.50
2018-07-05T15:03:03.342Z,26.30
2018-07-05T15:04:34.908Z,26.60
2018-07-05T15:06:06.593Z,27.70
2018-07-05T15:07:38.076Z,27.10
2018-07-05T15:10:41.246Z,27.10
2018-07-05T15:12:13.122Z,27.00
2018-07-05T15:13:44.438Z,25.20
2018-07-05T15:15:16.008Z,22.50
2018-07-05T15:16:47.585Z,21.70
2018-07-05T15:18:19.214Z,23.40
2018-07-05T15:19:50.921Z,23.70
2018-07-05T15:21:23.406Z,25.40
2018-07-05T15:22:54.125Z,24.30
2018-07-05T15:25:57.592Z,23.70
2018-07-05T15:27:28.687Z,23.20
2018-07-05T15:29:00.266Z,24.90
2018-07-05T15:30:31.860Z,25.20
2018-07-05T15:32:03.429Z,25.30
2018-07-05T15:33:35.015Z,24.00
2018-07-05T15:35:06.603Z,24.20
2018-07-05T15:36:38.186Z,23.50
2018-07-05T15:38:09.769Z,23.70
2018-07-05T15:39:41.356Z,25.30
2018-07-05T15:41:12.939Z,23.60
2018-07-05T15:42:45.461Z,20.50
2018-07-05T15:44:16.210Z,15.80
2018-07-05T15:45:47.696Z,18.00
2018-07-05T15:48:50.864Z,18.70
2018-07-05T15:50:22.754Z,15.70
2018-07-05T15:51:54.035Z,14.10
2018-07-05T15:53:25.620Z,15.30
2018-07-05T15:54:57.431Z,17.90
2018-07-05T15:56:28.790Z,16.30
2018-07-05T15:58:00.377Z,17.10
2018-07-05T15:59:31.961Z,16.70
2018-07-05T16:02:35.232Z,13.90
2018-07-05T16:04:07.223Z,12.40
2018-07-05T16:05:38.302Z,10.50
2018-07-05T16:07:09.887Z,11.10
2018-07-05T16:08:41.675Z,11.20
2018-07-05T16:10:13.079Z,14.80
2018-07-05T16:13:16.230Z,14.00
2018-07-05T16:14:47.815Z,13.60
2018-07-05T16:16:19.635Z,12.70
2018-07-05T16:17:50.986Z,12.50
2018-07-05T16:19:22.829Z,12.60
2018-07-05T16:20:54.260Z,13.10
2018-07-05T16:22:25.744Z,12.30
2018-07-05T16:23:57.380Z,15.60
2018-07-05T16:25:29.227Z,14.90
2018-07-05T16:27:00.602Z,15.80
2018-07-05T16:28:32.088Z,15.30
2018-07-05T16:30:03.677Z,17.00
2018-07-05T16:31:35.259Z,16.00
2018-07-05T16:33:07.148Z,14.20
2018-07-05T16:34:38.460Z,16.40
2018-07-05T16:36:10.036Z,14.90
2018-07-05T16:37:41.805Z,15.90
2018-07-05T16:39:13.493Z,17.40
2018-07-05T16:40:45.310Z,13.30
2018-07-05T16:42:16.364Z,13.90
2018-07-05T16:43:47.947Z,13.20
2018-07-05T16:45:19.532Z,15.00
2018-07-05T16:46:51.117Z,15.30
2018-07-05T16:49:54.534Z,11.60
2018-07-05T16:51:25.874Z,11.20
2018-07-05T16:52:57.460Z,11.20
2018-07-05T16:56:00.748Z,10.40
2018-07-05T16:57:32.317Z,11.00
2018-07-05T16:59:03.799Z,10.40
2018-07-05T17:00:35.385Z,12.60
2018-07-05T17:05:10.169Z,11.40
2018-07-05T17:06:41.728Z,12.40
2018-07-05T17:08:13.309Z,11.90
2018-07-05T17:11:16.506Z,12.20
2018-07-05T17:12:48.062Z,11.50
2018-07-05T17:14:19.644Z,13.80
2018-07-05T17:15:51.240Z,12.50
2018-07-05T17:17:23.354Z,12.80
2018-07-05T17:18:54.424Z,13.30
2018-07-05T17:20:25.983Z,12.80
2018-07-05T17:21:57.568Z,11.00
2018-07-05T17:25:00.769Z,12.90
2018-07-05T17:26:32.325Z,13.10
2018-07-05T17:28:03.910Z,12.70
2018-07-05T17:29:35.495Z,12.70
2018-07-05T17:34:10.349Z,12.20
2018-07-05T17:35:41.835Z,11.80
2018-07-05T17:37:13.419Z,11.90
2018-07-05T17:38:45.307Z,11.20
2018-07-05T17:40:16.849Z,10.10
2018-07-05T17:41:48.347Z,10.40
2018-07-05T17:43:19.757Z,10.60
2018-07-05T17:44:51.340Z,10.30
2018-07-05T17:47:55.582Z,9.50
2018-07-05T17:49:27.031Z,10.50
2018-07-05T17:50:57.702Z,9.40
2018-07-05T17:52:29.257Z,11.30
2018-07-05T17:54:01.252Z,10.10
2018-07-05T17:55:32.509Z,10.40
2018-07-05T17:57:04.005Z,10.60
2018-07-05T17:58:35.601Z,10.90
2018-07-05T18:00:07.398Z,11.30
2018-07-05T18:01:38.805Z,10.70
2018-07-05T18:03:10.336Z,11.90
2018-07-05T18:04:41.918Z,11.20
2018-07-05T18:06:13.501Z,10.30
2018-07-05T18:07:45.337Z,10.20
2018-07-05T18:09:16.717Z,10.70
2018-07-05T18:10:48.294Z,11.10
2018-07-05T18:13:51.720Z,12.50
2018-07-05T18:16:54.883Z,14.20
2018-07-05T18:18:26.181Z,13.10
2018-07-05T18:19:58.085Z,11.80
2018-07-05T18:21:29.339Z,12.20
2018-07-05T18:24:33.243Z,11.00
2018-07-05T18:26:04.088Z,11.70
2018-07-05T18:27:35.656Z,10.40
2018-07-05T18:29:07.235Z,11.30
2018-07-05T18:30:38.818Z,10.70
2018-07-05T18:32:10.700Z,11.10
2018-07-05T18:33:42.040Z,10.80
2018-07-05T18:35:13.564Z,11.00
2018-07-05T18:36:45.179Z,10.70
2018-07-05T18:38:16.731Z,11.20
2018-07-05T18:39:48.820Z,10.80
2018-07-05T18:41:19.895Z,10.20
2018-07-05T18:42:51.478Z,9.70
2018-07-05T18:44:23.060Z,11.10
2018-07-05T18:45:54.643Z,12.00
2018-07-05T18:47:26.242Z,12.00
2018-07-05T18:50:29.694Z,11.40
2018-07-05T18:52:01.159Z,11.70
2018-07-05T18:53:32.915Z,11.30
2018-07-05T18:55:04.169Z,11.10
2018-07-05T18:56:35.727Z,10.50
2018-07-05T18:58:07.304Z,10.30
2018-07-05T18:59:39.189Z,11.20
2018-07-05T19:01:10.467Z,10.90
2018-07-05T19:02:42.149Z,11.40
2018-07-05T19:04:13.632Z,11.30
2018-07-05T19:05:45.415Z,11.10
2018-07-05T19:07:16.997Z,11.30
2018-07-05T19:08:48.729Z,11.50
2018-07-05T19:11:51.743Z,12.30
2018-07-05T19:13:23.121Z,11.50
2018-07-05T19:14:54.702Z,11.70
2018-07-05T19:16:26.400Z,11.00
2018-07-05T19:17:57.866Z,11.40
2018-07-05T19:19:29.451Z,12.20
2018-07-05T19:21:01.028Z,10.90
2018-07-05T19:22:32.912Z,12.20
2018-07-05T19:24:04.241Z,11.80
2018-07-05T19:25:36.318Z,10.80
2018-07-05T19:27:08.368Z,11.00
2018-07-05T19:28:39.211Z,11.10
2018-07-05T19:30:10.526Z,12.20
2018-07-05T19:31:42.096Z,11.50
2018-07-05T19:33:13.699Z,10.80
2018-07-05T19:36:17.044Z,11.10
2018-07-05T19:37:48.418Z,11.40
2018-07-05T19:39:20.000Z,15.50
2018-07-05T19:40:51.581Z,16.70
2018-07-05T19:43:54.742Z,17.40
2018-07-05T19:45:26.525Z,18.00
2018-07-05T19:46:57.971Z,14.10
2018-07-05T19:48:29.492Z,12.80
2018-07-05T19:50:01.073Z,12.50
2018-07-05T19:51:33.075Z,12.30
2018-07-05T19:53:04.223Z,12.00
2018-07-05T19:54:35.801Z,12.40
2018-07-05T19:56:07.381Z,13.00
2018-07-05T19:57:39.265Z,12.70
2018-07-05T19:59:10.541Z,12.90
2018-07-05T20:00:42.159Z,14.20
2018-07-05T20:02:13.699Z,13.30
2018-07-05T20:03:45.528Z,13.20
2018-07-05T20:06:48.453Z,12.90
2018-07-05T20:08:20.014Z,14.10
2018-07-05T20:09:51.593Z,13.00
2018-07-05T20:11:23.194Z,14.70
2018-07-05T20:12:55.088Z,15.50
2018-07-05T20:14:26.331Z,15.10
2018-07-05T20:15:57.907Z,15.70
2018-07-05T20:17:29.486Z,14.20
2018-07-05T20:19:01.123Z,14.90
2018-07-05T20:20:32.640Z,14.20
2018-07-05T20:22:04.319Z,13.80
2018-07-05T20:23:35.796Z,14.60
2018-07-05T20:25:07.389Z,14.80
2018-07-05T20:28:11.010Z,14.50
2018-07-05T20:29:42.120Z,14.20